Silver Cloud — C6MQ5 — position and weather

sailwx.info

Track history (hours):
 
Tides and Currents Weather Stations Pressure Air Temp Water Temp Dewpoint Dewpoint Depression Visibility Wind Speed Wind Dir Waves Ship Positions

Silver Cloud

Operator: V Ships Leisure SAM

Last reported at 2014-Nov-23 14:33 UTC. Time now 2014-Nov-26 18:42 UTC.
Position N 31°53' W 023°37'.

Length 155 m; draft 5.7 m.

Type: Passenger vessel. MMSI: 309027000.

Date/timePositionNaut miles runAvg speedWind from/ knotsBaromVisibWave heightAir tempDewpointWater temp
2014-Nov-23 14:33N 31°53' W 023°37'2016.4
2014-Nov-23 13:19N 31°56' W 023°13'32315.5
2014-Nov-22 16:32N 32°39' W 016°55'0 0.0
2014-Nov-22 15:29N 32°39' W 016°55'0 0.0
2014-Nov-22 14:32N 32°39' W 016°55'0 0.0
2014-Nov-22 13:32N 32°39' W 016°55'0 0.0
2014-Nov-22 12:32N 32°39' W 016°55'0 0.0
2014-Nov-22 11:32N 32°39' W 016°55'0 0.0
2014-Nov-22 10:32N 32°39' W 016°55'0 0.0
2014-Nov-22 09:32N 32°39' W 016°55'0 0.0
2014-Nov-22 08:32N 32°39' W 016°55'0 0.0
2014-Nov-22 07:32N 32°39' W 016°55'0 0.0
2014-Nov-22 06:32N 32°39' W 016°55'0 0.0
2014-Nov-22 05:32N 32°39' W 016°55'0 0.0
2014-Nov-22 04:32N 32°39' W 016°55'0 0.0
2014-Nov-22 03:26N 32°39' W 016°55'0 0.0
2014-Nov-22 02:32N 32°39' W 016°55'0 0.0
2014-Nov-22 01:29N 32°39' W 016°55'0 0.0
2014-Nov-22 00:32N 32°39' W 016°55'0 0.0
2014-Nov-21 23:32N 32°39' W 016°55'0 0.0
2014-Nov-21 22:32N 32°39' W 016°55'0 0.0
2014-Nov-21 21:26N 32°39' W 016°55'0 0.0
2014-Nov-21 20:32N 32°39' W 016°55'0 0.0
2014-Nov-21 19:33N 32°39' W 016°55'0 0.0
2014-Nov-21 18:33N 32°39' W 016°55'0 0.0
2014-Nov-21 17:33N 32°39' W 016°55'0 0.0
2014-Nov-21 16:33N 32°39' W 016°55'0 0.0
2014-Nov-21 15:33N 32°39' W 016°55'0 0.0
2014-Nov-21 14:33N 32°39' W 016°55'1 1.1
2014-Nov-21 13:33N 32°38' W 016°53'50816.7
2014-Nov-20 07:08N 35°39' W 007°20'9316.5
2014-Nov-20 01:29N 35°60' W 005°27'1515.8
2014-Nov-20 00:33N 36°06' W 005°11'224 5.2
2014-Nov-18 05:33N 37°30' W 000°51'1514.7
2014-Nov-18 04:33N 37°29' W 000°33'1615.9
2014-Nov-18 03:33N 37°30' W 000°13'50914.9
2014-Nov-16 17:27N 36°51' E 010°24'106 5.5
2014-Nov-15 22:11N 36°51' E 012°36'1016.5
2014-Nov-15 21:33N 36°47' E 012°48'1716.3
2014-Nov-15 20:32N 36°39' E 013°06'1916.3
2014-Nov-15 19:21N 36°30' E 013°27'1416.3
2014-Nov-15 18:30N 36°24' E 013°42'1615.9
2014-Nov-15 17:31N 36°16' E 013°60'1615.7
2014-Nov-15 16:32N 36°09' E 014°17'33 2.3
2014-Nov-15 02:16N 36°33' E 013°49'118 5.4
2014-Nov-14 04:29N 38°17' E 012°37'1414.8
2014-Nov-14 03:32N 38°30' E 012°45'12415.0
2014-Nov-13 19:18N 40°21' E 013°58'1115.2
2014-Nov-13 18:33N 40°31' E 014°05'1515.4
2014-Nov-13 17:33N 40°44' E 014°14'  
Track history (hours):
 
Tides and Currents Weather Stations Pressure Air Temp Water Temp Dewpoint Dewpoint Depression Visibility Wind Speed Wind Dir Waves Ship Positions

Silver Cloud

Operator: V Ships Leisure SAM

Last reported at 2014-Nov-23 14:33 UTC. Time now 2014-Nov-26 18:42 UTC.
Position N 31°53' W 023°37'.

Length 155 m; draft 5.7 m.

Type: Passenger vessel. MMSI: 309027000.

Date/timePositionNaut miles runAvg speedWind from/ knotsBaromVisibWave heightAir tempDewpointWater temp
2014-Nov-23 14:33N 31°53' W 023°37'2016.4
2014-Nov-23 13:19N 31°56' W 023°13'32315.5
2014-Nov-22 16:32N 32°39' W 016°55'0 0.0
2014-Nov-22 15:29N 32°39' W 016°55'0 0.0
2014-Nov-22 14:32N 32°39' W 016°55'0 0.0
2014-Nov-22 13:32N 32°39' W 016°55'0 0.0
2014-Nov-22 12:32N 32°39' W 016°55'0 0.0
2014-Nov-22 11:32N 32°39' W 016°55'0 0.0
2014-Nov-22 10:32N 32°39' W 016°55'0 0.0
2014-Nov-22 09:32N 32°39' W 016°55'0 0.0
2014-Nov-22 08:32N 32°39' W 016°55'0 0.0
2014-Nov-22 07:32N 32°39' W 016°55'0 0.0
2014-Nov-22 06:32N 32°39' W 016°55'0 0.0
2014-Nov-22 05:32N 32°39' W 016°55'0 0.0
2014-Nov-22 04:32N 32°39' W 016°55'0 0.0
2014-Nov-22 03:26N 32°39' W 016°55'0 0.0
2014-Nov-22 02:32N 32°39' W 016°55'0 0.0
2014-Nov-22 01:29N 32°39' W 016°55'0 0.0
2014-Nov-22 00:32N 32°39' W 016°55'0 0.0
2014-Nov-21 23:32N 32°39' W 016°55'0 0.0
2014-Nov-21 22:32N 32°39' W 016°55'0 0.0
2014-Nov-21 21:26N 32°39' W 016°55'0 0.0
2014-Nov-21 20:32N 32°39' W 016°55'0 0.0
2014-Nov-21 19:33N 32°39' W 016°55'0 0.0
2014-Nov-21 18:33N 32°39' W 016°55'0 0.0
2014-Nov-21 17:33N 32°39' W 016°55'0 0.0
2014-Nov-21 16:33N 32°39' W 016°55'0 0.0
2014-Nov-21 15:33N 32°39' W 016°55'0 0.0
2014-Nov-21 14:33N 32°39' W 016°55'1 1.1
2014-Nov-21 13:33N 32°38' W 016°53'50816.7
2014-Nov-20 07:08N 35°39' W 007°20'9316.5
2014-Nov-20 01:29N 35°60' W 005°27'1515.8
2014-Nov-20 00:33N 36°06' W 005°11'224 5.2
2014-Nov-18 05:33N 37°30' W 000°51'1514.7
2014-Nov-18 04:33N 37°29' W 000°33'1615.9
2014-Nov-18 03:33N 37°30' W 000°13'50914.9
2014-Nov-16 17:27N 36°51' E 010°24'106 5.5
2014-Nov-15 22:11N 36°51' E 012°36'1016.5
2014-Nov-15 21:33N 36°47' E 012°48'1716.3
2014-Nov-15 20:32N 36°39' E 013°06'1916.3
2014-Nov-15 19:21N 36°30' E 013°27'1416.3
2014-Nov-15 18:30N 36°24' E 013°42'1615.9
2014-Nov-15 17:31N 36°16' E 013°60'1615.7
2014-Nov-15 16:32N 36°09' E 014°17'33 2.3
2014-Nov-15 02:16N 36°33' E 013°49'118 5.4
2014-Nov-14 04:29N 38°17' E 012°37'1414.8
2014-Nov-14 03:32N 38°30' E 012°45'12415.0
2014-Nov-13 19:18N 40°21' E 013°58'1115.2
2014-Nov-13 18:33N 40°31' E 014°05'1515.4
2014-Nov-13 17:33N 40°44' E 014°14'  

Dump ship's entire track history